PWSweather.com
Personal Weather Stations
Station Observations
HELOTES
Helotes Park Terrace, Helotes, TX 78023

Helotes Park TerraceHelotes, TX 78023

Lat: 29.57, Lon: -98.68

Elevation: 1060

Station Type: Ambient Weather WS-1090

Latest ConditionsUpdated 11:40:14 PM CST Monday, Jan 26, 2015
Currently Today's Max Today's Min Today's Average
Temperature 49.0°F9.4°C 68.2°F20.1°C 42.1°F5.6°C 54.2°F12.3°C
Dew Point 37.3°F2.9°C 48.0°F8.9°C 32.2°F0.1°C 39.4°F4.1°C
Winds 0.8 mph W1.3 kmh W 7.6 mph SW12.2 kmh SW - 2.3 mph 3.7 kmh
Wind Gusts 1.3 mph2.1 kmh 9.4 mph15.1 kmh - -
Humidity 64% 70% 39% 58%
Pressure 30.11 in1019.6 mb 30.19 in1022.4 mb 30.07 in1018.3 mb -
Hour Temp Dew Point Humidity Winds Wind Gusts Pressure Precip Precip Rate Daily Precip Total
11:40 PM 49.0°F9.4°C 37.3°F2.9°C 64% 0.8 mph W1.3 kmh W 1.3 mph2.1 kmh 30.11 in1019.6 mb 0.00 in0.0 mm 0.00 in/hr0.0 mm/hr 0.00 in0.0 mm
11:35 PM 49.3°F9.6°C 37.6°F3.1°C 64% 0.4 mph W0.6 kmh W 0.4 mph0.6 kmh 30.11 in1019.6 mb 0.00 in0.0 mm 0.00 in/hr0.0 mm/hr 0.00 in0.0 mm
11:30 PM 49.7°F9.8°C 38.0°F3.3°C 64% Calm Calm 1.1 mph1.8 kmh 30.11 in1019.6 mb 0.00 in0.0 mm 0.00 in/hr0.0 mm/hr 0.00 in0.0 mm
11:25 PM 49.9°F9.9°C 37.7°F3.2°C 63% 0.2 mph W0.3 kmh W 1.1 mph1.8 kmh 30.11 in1019.6 mb 0.00 in0.0 mm 0.00 in/hr0.0 mm/hr 0.00 in0.0 mm
11:20 PM 50.2°F10.1°C 38.1°F3.4°C 63% 0.5 mph WSW0.8 kmh WSW 1.6 mph2.6 kmh 30.11 in1019.6 mb 0.00 in0.0 mm 0.00 in/hr0.0 mm/hr 0.00 in0.0 mm
11:15 PM 50.6°F10.3°C 38.4°F3.6°C 63% 0.8 mph W1.3 kmh W 1.6 mph2.6 kmh 30.11 in1019.6 mb 0.00 in0.0 mm 0.00 in/hr0.0 mm/hr 0.00 in0.0 mm
11:10 PM 50.8°F10.4°C 38.2°F3.4°C 62% 0.9 mph WSW1.4 kmh WSW 1.8 mph2.9 kmh 30.11 in1019.6 mb 0.00 in0.0 mm 0.00 in/hr0.0 mm/hr 0.00 in0.0 mm
11:05 PM 50.9°F10.5°C 38.3°F3.5°C 62% 1.0 mph WSW1.6 kmh WSW 1.8 mph2.9 kmh 30.11 in1019.6 mb 0.00 in0.0 mm 0.00 in/hr0.0 mm/hr 0.00 in0.0 mm
11:00 PM 51.3°F10.7°C 38.7°F3.7°C 62% 0.8 mph WSW1.3 kmh WSW 2.0 mph3.2 kmh 30.11 in1019.6 mb 0.00 in0.0 mm 0.00 in/hr0.0 mm/hr 0.00 in0.0 mm
10:55 PM 51.5°F10.8°C 38.4°F3.6°C 61% 0.8 mph WSW1.3 kmh WSW 2.0 mph3.2 kmh 30.11 in1019.6 mb 0.00 in0.0 mm 0.00 in/hr0.0 mm/hr 0.00 in0.0 mm
10:50 PM 51.8°F11.0°C 38.8°F3.8°C 61% 1.2 mph WSW1.9 kmh WSW 2.7 mph4.3 kmh 30.11 in1019.6 mb 0.00 in0.0 mm 0.00 in/hr0.0 mm/hr 0.00 in0.0 mm
10:45 PM 52.2°F11.2°C 38.7°F3.7°C 60% 1.6 mph WSW2.6 kmh WSW 2.7 mph4.3 kmh 30.11 in1019.6 mb 0.00 in0.0 mm 0.00 in/hr0.0 mm/hr 0.00 in0.0 mm
10:40 PM 52.6°F11.4°C 39.1°F3.9°C 60% 1.7 mph WSW2.7 kmh WSW 2.5 mph4.0 kmh 30.11 in1019.6 mb 0.00 in0.0 mm 0.00 in/hr0.0 mm/hr 0.00 in0.0 mm
10:35 PM 52.9°F11.6°C 39.0°F3.9°C 59% 1.8 mph SW2.9 kmh SW 2.0 mph3.2 kmh 30.11 in1019.6 mb 0.00 in0.0 mm 0.00 in/hr0.0 mm/hr 0.00 in0.0 mm
10:30 PM 53.1°F11.7°C 39.2°F4.0°C 59% 0.2 mph W0.3 kmh W 1.6 mph2.6 kmh 30.11 in1019.6 mb 0.00 in0.0 mm 0.00 in/hr0.0 mm/hr 0.00 in0.0 mm
10:25 PM 53.3°F11.8°C 39.3°F4.1°C 59% 0.4 mph W0.6 kmh W 2.9 mph4.7 kmh 30.10 in1019.3 mb 0.00 in0.0 mm 0.00 in/hr0.0 mm/hr 0.00 in0.0 mm
10:20 PM 53.3°F11.8°C 39.3°F4.1°C 59% 0.7 mph WNW1.1 kmh WNW 2.9 mph4.7 kmh 30.10 in1019.3 mb 0.00 in0.0 mm 0.00 in/hr0.0 mm/hr 0.00 in0.0 mm
10:15 PM 53.6°F12.0°C 39.7°F4.3°C 59% 1.7 mph WSW2.7 kmh WSW 2.5 mph4.0 kmh 30.11 in1019.6 mb 0.00 in0.0 mm 0.00 in/hr0.0 mm/hr 0.00 in0.0 mm
10:10 PM 53.8°F12.1°C 39.9°F4.4°C 59% 1.5 mph W2.4 kmh W 2.5 mph4.0 kmh 30.10 in1019.3 mb 0.00 in0.0 mm 0.00 in/hr0.0 mm/hr 0.00 in0.0 mm
10:05 PM 54.2°F12.3°C 39.7°F4.3°C 58% 1.8 mph SW2.9 kmh SW 3.4 mph5.5 kmh 30.11 in1019.6 mb 0.00 in0.0 mm 0.00 in/hr0.0 mm/hr 0.00 in0.0 mm
10:00 PM 54.4°F12.4°C 39.9°F4.4°C 58% 1.7 mph WSW2.7 kmh WSW 3.4 mph5.5 kmh 30.10 in1019.3 mb 0.00 in0.0 mm 0.00 in/hr0.0 mm/hr 0.00 in0.0 mm
09:55 PM 54.5°F12.5°C 40.1°F4.5°C 58% 2.3 mph WSW3.7 kmh WSW 3.4 mph5.5 kmh 30.10 in1019.3 mb 0.00 in0.0 mm 0.00 in/hr0.0 mm/hr 0.00 in0.0 mm
09:50 PM 54.7°F12.6°C 39.7°F4.3°C 57% 1.9 mph SW3.1 kmh SW 3.4 mph5.5 kmh 30.10 in1019.3 mb 0.00 in0.0 mm 0.00 in/hr0.0 mm/hr 0.00 in0.0 mm
09:45 PM 54.7°F12.6°C 40.1°F4.5°C 58% 1.6 mph SW2.6 kmh SW 3.6 mph5.8 kmh 30.10 in1019.3 mb 0.00 in0.0 mm 0.00 in/hr0.0 mm/hr 0.00 in0.0 mm
09:40 PM 54.7°F12.6°C 40.1°F4.5°C 58% 2.6 mph WSW4.2 kmh WSW 3.6 mph5.8 kmh 30.10 in1019.3 mb 0.00 in0.0 mm 0.00 in/hr0.0 mm/hr 0.00 in0.0 mm
09:35 PM 54.7°F12.6°C 40.1°F4.5°C 58% 2.6 mph WSW4.2 kmh WSW 3.6 mph5.8 kmh 30.11 in1019.6 mb 0.00 in0.0 mm 0.00 in/hr0.0 mm/hr 0.00 in0.0 mm
09:30 PM 54.5°F12.5°C 40.1°F4.5°C 58% 1.9 mph WSW3.1 kmh WSW 3.4 mph5.5 kmh 30.10 in1019.3 mb 0.00 in0.0 mm 0.00 in/hr0.0 mm/hr 0.00 in0.0 mm
09:25 PM 54.5°F12.5°C 40.1°F4.5°C 58% 2.5 mph WSW4.0 kmh WSW 3.6 mph5.8 kmh 30.10 in1019.3 mb 0.00 in0.0 mm 0.00 in/hr0.0 mm/hr 0.00 in0.0 mm
09:20 PM 54.5°F12.5°C 40.1°F4.5°C 58% 2.7 mph WSW4.3 kmh WSW 4.0 mph6.4 kmh 30.10 in1019.3 mb 0.00 in0.0 mm 0.00 in/hr0.0 mm/hr 0.00 in0.0 mm
09:15 PM 54.5°F12.5°C 40.1°F4.5°C 58% 3.5 mph WSW5.6 kmh WSW 4.0 mph6.4 kmh 30.10 in1019.3 mb 0.00 in0.0 mm 0.00 in/hr0.0 mm/hr 0.00 in0.0 mm
09:10 PM 54.5°F12.5°C 40.1°F4.5°C 58% 1.6 mph WSW2.6 kmh WSW 4.0 mph6.4 kmh 30.10 in1019.3 mb 0.00 in0.0 mm 0.00 in/hr0.0 mm/hr 0.00 in0.0 mm
09:05 PM 54.7°F12.6°C 40.1°F4.5°C 58% 2.4 mph WSW3.9 kmh WSW 4.0 mph6.4 kmh 30.10 in1019.3 mb 0.00 in0.0 mm 0.00 in/hr0.0 mm/hr 0.00 in0.0 mm
08:06 PM 56.3°F13.5°C 40.3°F4.6°C 55% 1.3 mph SW2.1 kmh SW 2.5 mph4.0 kmh 30.10 in1019.3 mb 0.00 in0.0 mm 0.00 in/hr0.0 mm/hr 0.00 in0.0 mm
08:05 PM 56.5°F13.6°C 40.5°F4.7°C 55% 1.1 mph SW1.8 kmh SW 2.0 mph3.2 kmh 30.10 in1019.3 mb 0.00 in0.0 mm 0.00 in/hr0.0 mm/hr 0.00 in0.0 mm
07:00 PM 58.9°F14.9°C 41.8°F5.4°C 53% 1.3 mph SW2.1 kmh SW 1.3 mph2.1 kmh 30.10 in1019.3 mb 0.00 in0.0 mm 0.00 in/hr0.0 mm/hr 0.00 in0.0 mm
06:43 PM 59.8°F15.4°C 42.1°F5.6°C 52% 2.0 mph SW3.2 kmh SW 3.4 mph5.5 kmh 30.10 in1019.3 mb 0.00 in0.0 mm 0.00 in/hr0.0 mm/hr 0.00 in0.0 mm
06:40 PM 59.9°F15.5°C 42.3°F5.7°C 52% 2.5 mph SW4.0 kmh SW 3.4 mph5.5 kmh 30.10 in1019.3 mb 0.00 in0.0 mm 0.00 in/hr0.0 mm/hr 0.00 in0.0 mm
06:35 PM 60.3°F15.7°C 42.1°F5.6°C 51% 1.7 mph SW2.7 kmh SW 2.0 mph3.2 kmh 30.09 in1019.0 mb 0.00 in0.0 mm 0.00 in/hr0.0 mm/hr 0.00 in0.0 mm
06:30 PM 60.7°F15.9°C 42.5°F5.8°C 51% 1.8 mph SW2.9 kmh SW 2.7 mph4.3 kmh 30.09 in1019.0 mb 0.00 in0.0 mm 0.00 in/hr0.0 mm/hr 0.00 in0.0 mm
06:25 PM 60.8°F16.0°C 42.1°F5.6°C 50% 1.9 mph SW3.1 kmh SW 2.7 mph4.3 kmh 30.09 in1019.0 mb 0.00 in0.0 mm 0.00 in/hr0.0 mm/hr 0.00 in0.0 mm
06:20 PM 61.2°F16.2°C 42.5°F5.8°C 50% 1.9 mph SW3.1 kmh SW 2.9 mph4.7 kmh 30.09 in1019.0 mb 0.00 in0.0 mm 0.00 in/hr0.0 mm/hr 0.00 in0.0 mm
06:15 PM 61.6°F16.4°C 42.2°F5.7°C 49% 2.1 mph SW3.4 kmh SW 2.9 mph4.7 kmh 30.09 in1019.0 mb 0.00 in0.0 mm 0.00 in/hr0.0 mm/hr 0.00 in0.0 mm
06:10 PM 62.1°F16.7°C 42.7°F5.9°C 49% 1.8 mph SW2.9 kmh SW 3.8 mph6.1 kmh 30.08 in1018.6 mb 0.00 in0.0 mm 0.00 in/hr0.0 mm/hr 0.00 in0.0 mm
06:05 PM 62.5°F16.9°C 42.4°F5.8°C 48% 2.0 mph SW3.2 kmh SW 3.8 mph6.1 kmh 30.09 in1019.0 mb 0.00 in0.0 mm 0.00 in/hr0.0 mm/hr 0.00 in0.0 mm
06:00 PM 62.8°F17.1°C 42.8°F6.0°C 48% 2.0 mph SW3.2 kmh SW 3.4 mph5.5 kmh 30.09 in1019.0 mb 0.00 in0.0 mm 0.00 in/hr0.0 mm/hr 0.00 in0.0 mm
05:55 PM 63.4°F17.4°C 42.7°F5.9°C 47% 1.8 mph SW2.9 kmh SW 2.5 mph4.0 kmh 30.09 in1019.0 mb 0.00 in0.0 mm 0.00 in/hr0.0 mm/hr 0.00 in0.0 mm
05:50 PM 63.7°F17.6°C 43.0°F6.1°C 47% 1.8 mph SSW2.9 kmh SSW 3.1 mph5.0 kmh 30.09 in1019.0 mb 0.00 in0.0 mm 0.00 in/hr0.0 mm/hr 0.00 in0.0 mm
05:45 PM 64.3°F17.9°C 42.9°F6.1°C 46% 1.9 mph SSW3.1 kmh SSW 3.1 mph5.0 kmh 30.09 in1019.0 mb 0.00 in0.0 mm 0.00 in/hr0.0 mm/hr 0.00 in0.0 mm
05:40 PM 64.8°F18.2°C 42.9°F6.1°C 45% 1.8 mph SW2.9 kmh SW 2.2 mph3.5 kmh 30.09 in1019.0 mb 0.00 in0.0 mm 0.00 in/hr0.0 mm/hr 0.00 in0.0 mm
05:35 PM 65.0°F18.3°C 43.0°F6.1°C 45% 1.3 mph SSW2.1 kmh SSW 2.2 mph3.5 kmh 30.09 in1019.0 mb 0.00 in0.0 mm 0.00 in/hr0.0 mm/hr 0.00 in0.0 mm
05:30 PM 65.3°F18.5°C 42.8°F6.0°C 44% 1.0 mph SSW1.6 kmh SSW 1.6 mph2.6 kmh 30.08 in1018.6 mb 0.00 in0.0 mm 0.00 in/hr0.0 mm/hr 0.00 in0.0 mm
05:25 PM 65.9°F18.8°C 43.3°F6.3°C 44% 0.8 mph SW1.3 kmh SW 1.8 mph2.9 kmh 30.08 in1018.6 mb 0.00 in0.0 mm 0.00 in/hr0.0 mm/hr 0.00 in0.0 mm
05:20 PM 66.6°F19.2°C 43.3°F6.3°C 43% 1.1 mph SW1.8 kmh SW 2.5 mph4.0 kmh 30.08 in1018.6 mb 0.00 in0.0 mm 0.00 in/hr0.0 mm/hr 0.00 in0.0 mm
05:15 PM 66.6°F19.2°C 43.3°F6.3°C 43% 1.4 mph SW2.3 kmh SW 3.1 mph5.0 kmh 30.08 in1018.6 mb 0.00 in0.0 mm 0.00 in/hr0.0 mm/hr 0.00 in0.0 mm
05:10 PM 67.0°F19.4°C 43.0°F6.1°C 42% 1.7 mph WSW2.7 kmh WSW 3.6 mph5.8 kmh 30.08 in1018.6 mb 0.00 in0.0 mm 0.00 in/hr0.0 mm/hr 0.00 in0.0 mm
05:05 PM 67.3°F19.6°C 42.8°F6.0°C 41% 2.0 mph WSW3.2 kmh WSW 3.6 mph5.8 kmh 30.08 in1018.6 mb 0.00 in0.0 mm 0.00 in/hr0.0 mm/hr 0.00 in0.0 mm
04:59 PM 67.7°F19.8°C 42.5°F5.8°C 40% 3.4 mph SW5.5 kmh SW 6.9 mph11.1 kmh 30.08 in1018.6 mb 0.00 in0.0 mm 0.00 in/hr0.0 mm/hr 0.00 in0.0 mm
04:55 PM 67.9°F19.9°C 42.7°F5.9°C 40% 3.7 mph WSW6.0 kmh WSW 6.9 mph11.1 kmh 30.08 in1018.6 mb 0.00 in0.0 mm 0.00 in/hr0.0 mm/hr 0.00 in0.0 mm
04:50 PM 68.0°F20.0°C 42.1°F5.6°C 39% 4.3 mph WSW6.9 kmh WSW 6.0 mph9.7 kmh 30.07 in1018.3 mb 0.00 in0.0 mm 0.00 in/hr0.0 mm/hr 0.00 in0.0 mm
04:45 PM 68.0°F20.0°C 43.5°F6.4°C 41% 4.0 mph W6.4 kmh W 7.6 mph12.2 kmh 30.07 in1018.3 mb 0.00 in0.0 mm 0.00 in/hr0.0 mm/hr 0.00 in0.0 mm
04:40 PM 68.0°F20.0°C 43.5°F6.4°C 41% 6.8 mph SW10.9 kmh SW 8.1 mph13.0 kmh 30.07 in1018.3 mb 0.00 in0.0 mm 0.00 in/hr0.0 mm/hr 0.00 in0.0 mm
04:35 PM 68.0°F20.0°C 43.5°F6.4°C 41% 6.3 mph WSW10.1 kmh WSW 8.1 mph13.0 kmh 30.07 in1018.3 mb 0.00 in0.0 mm 0.00 in/hr0.0 mm/hr 0.00 in0.0 mm
04:30 PM 67.9°F19.9°C 43.8°F6.6°C 42% 5.2 mph SW8.4 kmh SW 6.0 mph9.7 kmh 30.07 in1018.3 mb 0.00 in0.0 mm 0.00 in/hr0.0 mm/hr 0.00 in0.0 mm
04:25 PM 67.7°F19.8°C 44.3°F6.8°C 43% 3.8 mph SW6.1 kmh SW 5.6 mph9.0 kmh 30.07 in1018.3 mb 0.00 in0.0 mm 0.00 in/hr0.0 mm/hr 0.00 in0.0 mm
04:20 PM 67.5°F19.7°C 44.1°F6.7°C 43% 5.4 mph WSW8.7 kmh WSW 5.8 mph9.3 kmh 30.07 in1018.3 mb 0.00 in0.0 mm 0.00 in/hr0.0 mm/hr 0.00 in0.0 mm
04:15 PM 67.3°F19.6°C 44.0°F6.7°C 43% 3.8 mph SW6.1 kmh SW 5.8 mph9.3 kmh 30.07 in1018.3 mb 0.00 in0.0 mm 0.00 in/hr0.0 mm/hr 0.00 in0.0 mm
04:10 PM 67.5°F19.7°C 44.1°F6.7°C 43% 1.3 mph WSW2.1 kmh WSW 3.6 mph5.8 kmh 30.07 in1018.3 mb 0.00 in0.0 mm 0.00 in/hr0.0 mm/hr 0.00 in0.0 mm
04:05 PM 67.3°F19.6°C 44.0°F6.7°C 43% 3.0 mph SW4.8 kmh SW 3.6 mph5.8 kmh 30.07 in1018.3 mb 0.00 in0.0 mm 0.00 in/hr0.0 mm/hr 0.00 in0.0 mm
04:00 PM 67.5°F19.7°C 44.7°F7.1°C 44% 2.3 mph WSW3.7 kmh WSW 5.8 mph9.3 kmh 30.07 in1018.3 mb 0.00 in0.0 mm 0.00 in/hr0.0 mm/hr 0.00 in0.0 mm
03:55 PM 67.5°F19.7°C 44.1°F6.7°C 43% 2.7 mph WSW4.3 kmh WSW 5.8 mph9.3 kmh 30.07 in1018.3 mb 0.00 in0.0 mm 0.00 in/hr0.0 mm/hr 0.00 in0.0 mm
03:50 PM 67.5°F19.7°C 44.1°F6.7°C 43% 4.3 mph SW6.9 kmh SW 6.3 mph10.1 kmh 30.07 in1018.3 mb 0.00 in0.0 mm 0.00 in/hr0.0 mm/hr 0.00 in0.0 mm
03:45 PM 67.5°F19.7°C 44.1°F6.7°C 43% 4.2 mph SSW6.8 kmh SSW 6.3 mph10.1 kmh 30.08 in1018.6 mb 0.00 in0.0 mm 0.00 in/hr0.0 mm/hr 0.00 in0.0 mm
03:40 PM 67.5°F19.7°C 44.7°F7.1°C 44% 4.2 mph SW6.8 kmh SW 6.3 mph10.1 kmh 30.07 in1018.3 mb 0.00 in0.0 mm 0.00 in/hr0.0 mm/hr 0.00 in0.0 mm
03:35 PM 67.7°F19.8°C 44.9°F7.2°C 44% 2.0 mph WSW3.2 kmh WSW 6.9 mph11.1 kmh 30.08 in1018.6 mb 0.00 in0.0 mm 0.00 in/hr0.0 mm/hr 0.00 in0.0 mm
03:30 PM 67.7°F19.8°C 44.9°F7.2°C 44% 3.7 mph SSW6.0 kmh SSW 6.9 mph11.1 kmh 30.08 in1018.6 mb 0.00 in0.0 mm 0.00 in/hr0.0 mm/hr 0.00 in0.0 mm
03:24 PM 67.7°F19.8°C 44.9°F7.2°C 44% 4.3 mph SW6.9 kmh SW 4.7 mph7.6 kmh 30.08 in1018.6 mb 0.00 in0.0 mm 0.00 in/hr0.0 mm/hr 0.00 in0.0 mm
03:20 PM 67.7°F19.8°C 44.9°F7.2°C 44% 3.3 mph SW5.3 kmh SW 5.4 mph8.7 kmh 30.08 in1018.6 mb 0.00 in0.0 mm 0.00 in/hr0.0 mm/hr 0.00 in0.0 mm
03:15 PM 67.7°F19.8°C 45.5°F7.5°C 45% 2.5 mph SSW4.0 kmh SSW 5.4 mph8.7 kmh 30.08 in1018.6 mb 0.00 in0.0 mm 0.00 in/hr0.0 mm/hr 0.00 in0.0 mm
03:10 PM 67.5°F19.7°C 45.4°F7.4°C 45% 5.1 mph SW8.2 kmh SW 5.4 mph8.7 kmh 30.08 in1018.6 mb 0.00 in0.0 mm 0.00 in/hr0.0 mm/hr 0.00 in0.0 mm
03:04 PM 67.3°F19.6°C 45.2°F7.3°C 45% 3.9 mph WSW6.3 kmh WSW 5.1 mph8.2 kmh 30.08 in1018.6 mb 0.00 in0.0 mm 0.00 in/hr0.0 mm/hr 0.00 in0.0 mm
02:10 PM 67.9°F19.9°C 45.1°F7.3°C 44% 6.1 mph WSW9.8 kmh WSW 6.9 mph11.1 kmh 30.10 in1019.3 mb 0.00 in0.0 mm 0.00 in/hr0.0 mm/hr 0.00 in0.0 mm
02:05 PM 67.9°F19.9°C 45.1°F7.3°C 44% 3.4 mph SW5.5 kmh SW 4.3 mph6.9 kmh 30.10 in1019.3 mb 0.00 in0.0 mm 0.00 in/hr0.0 mm/hr 0.00 in0.0 mm
02:00 PM 68.0°F20.0°C 45.2°F7.3°C 44% 3.4 mph SW5.5 kmh SW 5.8 mph9.3 kmh 30.10 in1019.3 mb 0.00 in0.0 mm 0.00 in/hr0.0 mm/hr 0.00 in0.0 mm
01:55 PM 68.0°F20.0°C 45.2°F7.3°C 44% 5.0 mph WSW8.0 kmh WSW 5.8 mph9.3 kmh 30.10 in1019.3 mb 0.00 in0.0 mm 0.00 in/hr0.0 mm/hr 0.00 in0.0 mm
01:50 PM 68.2°F20.1°C 45.4°F7.4°C 44% 3.4 mph SSW5.5 kmh SSW 4.0 mph6.4 kmh 30.10 in1019.3 mb 0.00 in0.0 mm 0.00 in/hr0.0 mm/hr 0.00 in0.0 mm
01:45 PM 68.2°F20.1°C 44.8°F7.1°C 43% 3.2 mph SW5.1 kmh SW 5.1 mph8.2 kmh 30.10 in1019.3 mb 0.00 in0.0 mm 0.00 in/hr0.0 mm/hr 0.00 in0.0 mm
01:40 PM 68.2°F20.1°C 44.8°F7.1°C 43% 3.1 mph SW5.0 kmh SW 6.0 mph9.7 kmh 30.10 in1019.3 mb 0.00 in0.0 mm 0.00 in/hr0.0 mm/hr 0.00 in0.0 mm
01:35 PM 68.0°F20.0°C 45.2°F7.3°C 44% 1.9 mph S3.1 kmh S 6.0 mph9.7 kmh 30.11 in1019.6 mb 0.00 in0.0 mm 0.00 in/hr0.0 mm/hr 0.00 in0.0 mm
01:30 PM 68.0°F20.0°C 44.7°F7.1°C 43% 3.5 mph WSW5.6 kmh WSW 4.9 mph7.9 kmh 30.11 in1019.6 mb 0.00 in0.0 mm 0.00 in/hr0.0 mm/hr 0.00 in0.0 mm
01:25 PM 68.0°F20.0°C 45.2°F7.3°C 44% 3.4 mph SSE5.5 kmh SSE 6.3 mph10.1 kmh 30.12 in1020.0 mb 0.00 in0.0 mm 0.00 in/hr0.0 mm/hr 0.00 in0.0 mm
01:20 PM 68.2°F20.1°C 46.0°F7.8°C 45% 3.7 mph S6.0 kmh S 6.3 mph10.1 kmh 30.12 in1020.0 mb 0.00 in0.0 mm 0.00 in/hr0.0 mm/hr 0.00 in0.0 mm
01:15 PM 68.0°F20.0°C 46.5°F8.1°C 46% 5.8 mph SSE9.3 kmh SSE 6.3 mph10.1 kmh 30.12 in1020.0 mb 0.00 in0.0 mm 0.00 in/hr0.0 mm/hr 0.00 in0.0 mm
01:10 PM 68.0°F20.0°C 47.0°F8.3°C 47% 2.9 mph SW4.7 kmh SW 3.4 mph5.5 kmh 30.12 in1020.0 mb 0.00 in0.0 mm 0.00 in/hr0.0 mm/hr 0.00 in0.0 mm
01:05 PM 68.0°F20.0°C 47.0°F8.3°C 47% 2.6 mph SSW4.2 kmh SSW 4.5 mph7.2 kmh 30.13 in1020.3 mb 0.00 in0.0 mm 0.00 in/hr0.0 mm/hr 0.00 in0.0 mm
01:00 PM 68.0°F20.0°C 47.0°F8.3°C 47% 2.6 mph S4.2 kmh S 4.5 mph7.2 kmh 30.13 in1020.3 mb 0.00 in0.0 mm 0.00 in/hr0.0 mm/hr 0.00 in0.0 mm
12:55 PM 67.7°F19.8°C 47.3°F8.5°C 48% 3.2 mph SSE5.1 kmh SSE 5.1 mph8.2 kmh 30.13 in1020.3 mb 0.00 in0.0 mm 0.00 in/hr0.0 mm/hr 0.00 in0.0 mm
12:50 PM 67.5°F19.7°C 47.1°F8.4°C 48% 3.4 mph SE5.5 kmh SE 5.1 mph8.2 kmh 30.14 in1020.7 mb 0.00 in0.0 mm 0.00 in/hr0.0 mm/hr 0.00 in0.0 mm
12:45 PM 67.3°F19.6°C 46.4°F8.0°C 47% 2.3 mph S3.7 kmh S 6.5 mph10.5 kmh 30.14 in1020.7 mb 0.00 in0.0 mm 0.00 in/hr0.0 mm/hr 0.00 in0.0 mm
12:40 PM 67.3°F19.6°C 45.7°F7.6°C 46% 2.8 mph S4.5 kmh S 9.4 mph15.1 kmh 30.15 in1021.0 mb 0.00 in0.0 mm 0.00 in/hr0.0 mm/hr 0.00 in0.0 mm
12:35 PM 67.0°F19.4°C 44.8°F7.1°C 45% 7.6 mph SW12.2 kmh SW 9.4 mph15.1 kmh 30.15 in1021.0 mb 0.00 in0.0 mm 0.00 in/hr0.0 mm/hr 0.00 in0.0 mm
12:30 PM 66.8°F19.3°C 45.9°F7.7°C 47% 3.6 mph SW5.8 kmh SW 6.0 mph9.7 kmh 30.15 in1021.0 mb 0.00 in0.0 mm 0.00 in/hr0.0 mm/hr 0.00 in0.0 mm
12:25 PM 66.8°F19.3°C 46.4°F8.0°C 48% 5.7 mph SW9.2 kmh SW 8.1 mph13.0 kmh 30.16 in1021.3 mb 0.00 in0.0 mm 0.00 in/hr0.0 mm/hr 0.00 in0.0 mm
12:20 PM 66.6°F19.2°C 48.0°F8.9°C 51% 4.5 mph SW7.2 kmh SW 8.1 mph13.0 kmh 30.16 in1021.3 mb 0.00 in0.0 mm 0.00 in/hr0.0 mm/hr 0.00 in0.0 mm
12:15 PM 66.4°F19.1°C 47.8°F8.8°C 51% 5.2 mph SW8.4 kmh SW 8.1 mph13.0 kmh 30.17 in1021.7 mb 0.00 in0.0 mm 0.00 in/hr0.0 mm/hr 0.00 in0.0 mm
12:10 PM 65.5°F18.6°C 47.9°F8.8°C 53% 3.2 mph SSW5.1 kmh SSW 5.4 mph8.7 kmh 30.17 in1021.7 mb 0.00 in0.0 mm 0.00 in/hr0.0 mm/hr 0.00 in0.0 mm
12:05 PM 64.4°F18.0°C 47.8°F8.8°C 55% 3.3 mph S5.3 kmh S 4.0 mph6.4 kmh 30.17 in1021.7 mb 0.00 in0.0 mm 0.00 in/hr0.0 mm/hr 0.00 in0.0 mm
12:00 PM 64.3°F17.9°C 47.6°F8.7°C 55% 2.6 mph S4.2 kmh S 4.7 mph7.6 kmh 30.17 in1021.7 mb 0.00 in0.0 mm 0.00 in/hr0.0 mm/hr 0.00 in0.0 mm
11:55 AM 63.7°F17.6°C 47.6°F8.7°C 56% 4.1 mph WSW6.6 kmh WSW 5.6 mph9.0 kmh 30.17 in1021.7 mb 0.00 in0.0 mm 0.00 in/hr0.0 mm/hr 0.00 in0.0 mm
11:50 AM 63.5°F17.5°C 48.0°F8.9°C 57% 2.5 mph SSE4.0 kmh SSE 5.6 mph9.0 kmh 30.17 in1021.7 mb 0.00 in0.0 mm 0.00 in/hr0.0 mm/hr 0.00 in0.0 mm
11:45 AM 63.2°F17.3°C 47.6°F8.7°C 57% 2.7 mph S4.3 kmh S 4.7 mph7.6 kmh 30.17 in1021.7 mb 0.00 in0.0 mm 0.00 in/hr0.0 mm/hr 0.00 in0.0 mm
11:40 AM 62.8°F17.1°C 47.4°F8.6°C 57% 2.2 mph S3.5 kmh S 4.7 mph7.6 kmh 30.18 in1022.0 mb 0.00 in0.0 mm 0.00 in/hr0.0 mm/hr 0.00 in0.0 mm
11:35 AM 62.6°F17.0°C 47.2°F8.4°C 57% 3.4 mph S5.5 kmh S 4.7 mph7.6 kmh 30.18 in1022.0 mb 0.00 in0.0 mm 0.00 in/hr0.0 mm/hr 0.00 in0.0 mm
11:30 AM 62.6°F17.0°C 47.6°F8.7°C 58% 2.8 mph SSW4.5 kmh SSW 4.9 mph7.9 kmh 30.18 in1022.0 mb 0.00 in0.0 mm 0.00 in/hr0.0 mm/hr 0.00 in0.0 mm
11:25 AM 62.3°F16.8°C 47.8°F8.8°C 59% 3.2 mph S5.1 kmh S 6.0 mph9.7 kmh 30.18 in1022.0 mb 0.00 in0.0 mm 0.00 in/hr0.0 mm/hr 0.00 in0.0 mm
11:20 AM 61.9°F16.6°C 48.0°F8.9°C 60% 2.8 mph SE4.5 kmh SE 6.3 mph10.1 kmh 30.18 in1022.0 mb 0.00 in0.0 mm 0.00 in/hr0.0 mm/hr 0.00 in0.0 mm
11:15 AM 60.7°F15.9°C 46.8°F8.2°C 60% 3.2 mph S5.1 kmh S 6.3 mph10.1 kmh 30.19 in1022.4 mb 0.00 in0.0 mm 0.00 in/hr0.0 mm/hr 0.00 in0.0 mm
11:10 AM 59.8°F15.4°C 46.4°F8.0°C 61% 3.9 mph SSE6.3 kmh SSE 5.1 mph8.2 kmh 30.19 in1022.4 mb 0.00 in0.0 mm 0.00 in/hr0.0 mm/hr 0.00 in0.0 mm
11:05 AM 59.0°F15.0°C 46.0°F7.8°C 62% 2.2 mph SSE3.5 kmh SSE 5.1 mph8.2 kmh 30.19 in1022.4 mb 0.00 in0.0 mm 0.00 in/hr0.0 mm/hr 0.00 in0.0 mm
11:00 AM 58.3°F14.6°C 45.4°F7.4°C 62% 4.1 mph S6.6 kmh S 4.7 mph7.6 kmh 30.19 in1022.4 mb 0.00 in0.0 mm 0.00 in/hr0.0 mm/hr 0.00 in0.0 mm
10:55 AM 58.1°F14.5°C 45.2°F7.3°C 62% 2.7 mph SSE4.3 kmh SSE 4.0 mph6.4 kmh 30.19 in1022.4 mb 0.00 in0.0 mm 0.00 in/hr0.0 mm/hr 0.00 in0.0 mm
10:50 AM 58.0°F14.4°C 44.7°F7.1°C 61% 3.4 mph S5.5 kmh S 5.1 mph8.2 kmh 30.19 in1022.4 mb 0.00 in0.0 mm 0.00 in/hr0.0 mm/hr 0.00 in0.0 mm
10:45 AM 57.6°F14.2°C 44.6°F7.0°C 62% 3.9 mph SSW6.3 kmh SSW 5.1 mph8.2 kmh 30.19 in1022.4 mb 0.00 in0.0 mm 0.00 in/hr0.0 mm/hr 0.00 in0.0 mm
10:40 AM 57.1°F13.9°C 44.6°F7.0°C 63% 3.6 mph SSE5.8 kmh SSE 4.5 mph7.2 kmh 30.19 in1022.4 mb 0.00 in0.0 mm 0.00 in/hr0.0 mm/hr 0.00 in0.0 mm
10:35 AM 56.5°F13.6°C 44.5°F6.9°C 64% 0.9 mph SE1.4 kmh SE 4.3 mph6.9 kmh 30.19 in1022.4 mb 0.00 in0.0 mm 0.00 in/hr0.0 mm/hr 0.00 in0.0 mm
10:30 AM 55.6°F13.1°C 43.6°F6.4°C 64% 1.5 mph SSE2.4 kmh SSE 4.3 mph6.9 kmh 30.19 in1022.4 mb 0.00 in0.0 mm 0.00 in/hr0.0 mm/hr 0.00 in0.0 mm
10:25 AM 54.7°F12.6°C 43.1°F6.2°C 65% 1.5 mph SSE2.4 kmh SSE 2.5 mph4.0 kmh 30.18 in1022.0 mb 0.00 in0.0 mm 0.00 in/hr0.0 mm/hr 0.00 in0.0 mm
10:20 AM 54.0°F12.2°C 42.8°F6.0°C 66% 1.9 mph S3.1 kmh S 3.4 mph5.5 kmh 30.19 in1022.4 mb 0.00 in0.0 mm 0.00 in/hr0.0 mm/hr 0.00 in0.0 mm
10:15 AM 53.5°F11.9°C 42.8°F6.0°C 67% 1.7 mph S2.7 kmh S 3.4 mph5.5 kmh 30.19 in1022.4 mb 0.00 in0.0 mm 0.00 in/hr0.0 mm/hr 0.00 in0.0 mm
10:10 AM 52.9°F11.6°C 42.2°F5.7°C 67% 2.0 mph SSW3.2 kmh SSW 3.4 mph5.5 kmh 30.18 in1022.0 mb 0.00 in0.0 mm 0.00 in/hr0.0 mm/hr 0.00 in0.0 mm
10:05 AM 52.4°F11.3°C 41.8°F5.4°C 67% 2.0 mph S3.2 kmh S 4.0 mph6.4 kmh 30.18 in1022.0 mb 0.00 in0.0 mm 0.00 in/hr0.0 mm/hr 0.00 in0.0 mm
10:00 AM 52.0°F11.1°C 41.9°F5.5°C 68% 1.5 mph S2.4 kmh S 4.0 mph6.4 kmh 30.18 in1022.0 mb 0.00 in0.0 mm 0.00 in/hr0.0 mm/hr 0.00 in0.0 mm
09:55 AM 51.5°F10.8°C 41.3°F5.2°C 68% 1.0 mph SSE1.6 kmh SSE 2.5 mph4.0 kmh 30.18 in1022.0 mb 0.00 in0.0 mm 0.00 in/hr0.0 mm/hr 0.00 in0.0 mm
09:50 AM 51.1°F10.6°C 41.0°F5.0°C 68% 1.7 mph SSW2.7 kmh SSW 2.9 mph4.7 kmh 30.17 in1021.7 mb 0.00 in0.0 mm 0.00 in/hr0.0 mm/hr 0.00 in0.0 mm
09:45 AM 50.6°F10.3°C 40.4°F4.7°C 68% 1.1 mph S1.8 kmh S 2.9 mph4.7 kmh 30.18 in1022.0 mb 0.00 in0.0 mm 0.00 in/hr0.0 mm/hr 0.00 in0.0 mm
09:40 AM 50.4°F10.2°C 40.2°F4.6°C 68% 1.0 mph S1.6 kmh S 1.3 mph2.1 kmh 30.17 in1021.7 mb 0.00 in0.0 mm 0.00 in/hr0.0 mm/hr 0.00 in0.0 mm
09:35 AM 50.0°F10.0°C 39.9°F4.4°C 68% 0.8 mph SSE1.3 kmh SSE 1.6 mph2.6 kmh 30.17 in1021.7 mb 0.00 in0.0 mm 0.00 in/hr0.0 mm/hr 0.00 in0.0 mm
09:30 AM 49.7°F9.8°C 39.5°F4.2°C 68% 0.7 mph SSE1.1 kmh SSE 2.2 mph3.5 kmh 30.17 in1021.7 mb 0.00 in0.0 mm 0.00 in/hr0.0 mm/hr 0.00 in0.0 mm
09:25 AM 49.5°F9.7°C 39.3°F4.1°C 68% 1.4 mph SSE2.3 kmh SSE 2.2 mph3.5 kmh 30.17 in1021.7 mb 0.00 in0.0 mm 0.00 in/hr0.0 mm/hr 0.00 in0.0 mm
09:20 AM 49.0°F9.4°C 38.8°F3.8°C 68% 1.5 mph S2.4 kmh S 2.0 mph3.2 kmh 30.17 in1021.7 mb 0.00 in0.0 mm 0.00 in/hr0.0 mm/hr 0.00 in0.0 mm
09:15 AM 48.6°F9.2°C 38.9°F3.8°C 69% 1.2 mph S1.9 kmh S 2.0 mph3.2 kmh 30.17 in1021.7 mb 0.00 in0.0 mm 0.00 in/hr0.0 mm/hr 0.00 in0.0 mm
09:10 AM 47.9°F8.8°C 38.2°F3.4°C 69% 1.0 mph SSW1.6 kmh SSW 2.2 mph3.5 kmh 30.17 in1021.7 mb 0.00 in0.0 mm 0.00 in/hr0.0 mm/hr 0.00 in0.0 mm
09:05 AM 47.3°F8.5°C 38.1°F3.4°C 70% 0.4 mph SSW0.6 kmh SSW 2.2 mph3.5 kmh 30.17 in1021.7 mb 0.00 in0.0 mm 0.00 in/hr0.0 mm/hr 0.00 in0.0 mm
09:00 AM 46.8°F8.2°C 37.2°F2.9°C 69% 0.8 mph SW1.3 kmh SW 1.8 mph2.9 kmh 30.17 in1021.7 mb 0.00 in0.0 mm 0.00 in/hr0.0 mm/hr 0.00 in0.0 mm
08:55 AM 46.4°F8.0°C 36.9°F2.7°C 69% 0.9 mph SW1.4 kmh SW 2.0 mph3.2 kmh 30.17 in1021.7 mb 0.00 in0.0 mm 0.00 in/hr0.0 mm/hr 0.00 in0.0 mm
08:50 AM 46.3°F7.9°C 36.7°F2.6°C 69% 1.7 mph SW2.7 kmh SW 2.0 mph3.2 kmh 30.17 in1021.7 mb 0.00 in0.0 mm 0.00 in/hr0.0 mm/hr 0.00 in0.0 mm
08:45 AM 46.3°F7.9°C 36.7°F2.6°C 69% 1.3 mph WSW2.1 kmh WSW 1.8 mph2.9 kmh 30.16 in1021.3 mb 0.00 in0.0 mm 0.00 in/hr0.0 mm/hr 0.00 in0.0 mm
08:40 AM 46.1°F7.8°C 36.1°F2.3°C 68% 0.9 mph SW1.4 kmh SW 1.3 mph2.1 kmh 30.16 in1021.3 mb 0.00 in0.0 mm 0.00 in/hr0.0 mm/hr 0.00 in0.0 mm
08:35 AM 46.1°F7.8°C 36.1°F2.3°C 68% 1.1 mph S1.8 kmh S 1.8 mph2.9 kmh 30.17 in1021.7 mb 0.00 in0.0 mm 0.00 in/hr0.0 mm/hr 0.00 in0.0 mm
08:30 AM 46.1°F7.8°C 36.1°F2.3°C 68% Calm Calm 2.5 mph4.0 kmh 30.16 in1021.3 mb 0.00 in0.0 mm 0.00 in/hr0.0 mm/hr 0.00 in0.0 mm
08:25 AM 46.1°F7.8°C 36.1°F2.3°C 68% 1.8 mph S2.9 kmh S 2.5 mph4.0 kmh 30.16 in1021.3 mb 0.00 in0.0 mm 0.00 in/hr0.0 mm/hr 0.00 in0.0 mm
08:20 AM 46.3°F7.9°C 35.9°F2.2°C 67% 1.1 mph SE1.8 kmh SE 1.1 mph1.8 kmh 30.16 in1021.3 mb 0.00 in0.0 mm 0.00 in/hr0.0 mm/hr 0.00 in0.0 mm
08:15 AM 46.4°F8.0°C 35.6°F2.0°C 66% 0.5 mph ESE0.8 kmh ESE 1.6 mph2.6 kmh 30.16 in1021.3 mb 0.00 in0.0 mm 0.00 in/hr0.0 mm/hr 0.00 in0.0 mm
08:10 AM 46.8°F8.2°C 35.7°F2.1°C 65% 0.3 mph 0.5 kmh 1.6 mph2.6 kmh 30.15 in1021.0 mb 0.00 in0.0 mm 0.00 in/hr0.0 mm/hr 0.00 in0.0 mm
08:05 AM 47.5°F8.6°C 35.9°F2.2°C 64% 0.7 mph 1.1 kmh 1.6 mph2.6 kmh 30.16 in1021.3 mb 0.00 in0.0 mm 0.00 in/hr0.0 mm/hr 0.00 in0.0 mm
08:00 AM 48.1°F8.9°C 36.5°F2.5°C 64% 0.7 mph WNW1.1 kmh WNW 4.0 mph6.4 kmh 30.16 in1021.3 mb 0.00 in0.0 mm 0.00 in/hr0.0 mm/hr 0.00 in0.0 mm
07:55 AM 48.1°F8.9°C 36.1°F2.3°C 63% 1.3 mph W2.1 kmh W 4.0 mph6.4 kmh 30.16 in1021.3 mb 0.00 in0.0 mm 0.00 in/hr0.0 mm/hr 0.00 in0.0 mm
07:50 AM 47.9°F8.8°C 36.3°F2.4°C 64% 1.9 mph W3.1 kmh W 4.7 mph7.6 kmh 30.15 in1021.0 mb 0.00 in0.0 mm 0.00 in/hr0.0 mm/hr 0.00 in0.0 mm
07:45 AM 47.0°F8.3°C 35.8°F2.1°C 65% 3.2 mph WNW5.1 kmh WNW 4.7 mph7.6 kmh 30.15 in1021.0 mb 0.00 in0.0 mm 0.00 in/hr0.0 mm/hr 0.00 in0.0 mm
07:40 AM 46.4°F8.0°C 35.6°F2.0°C 66% 3.0 mph WNW4.8 kmh WNW 4.9 mph7.9 kmh 30.15 in1021.0 mb 0.00 in0.0 mm 0.00 in/hr0.0 mm/hr 0.00 in0.0 mm
07:35 AM 45.9°F7.7°C 35.6°F2.0°C 67% 2.6 mph W4.2 kmh W 4.9 mph7.9 kmh 30.15 in1021.0 mb 0.00 in0.0 mm 0.00 in/hr0.0 mm/hr 0.00 in0.0 mm
07:30 AM 45.4°F7.4°C 35.0°F1.7°C 67% 3.3 mph W5.3 kmh W 4.3 mph6.9 kmh 30.15 in1021.0 mb 0.00 in0.0 mm 0.00 in/hr0.0 mm/hr 0.00 in0.0 mm
07:25 AM 45.2°F7.3°C 34.8°F1.6°C 67% 2.4 mph WNW3.9 kmh WNW 3.1 mph5.0 kmh 30.14 in1020.7 mb 0.00 in0.0 mm 0.00 in/hr0.0 mm/hr 0.00 in0.0 mm
07:20 AM 45.2°F7.3°C 34.8°F1.6°C 67% 1.8 mph WSW2.9 kmh WSW 2.9 mph4.7 kmh 30.14 in1020.7 mb 0.00 in0.0 mm 0.00 in/hr0.0 mm/hr 0.00 in0.0 mm
07:15 AM 45.0°F7.2°C 34.7°F1.5°C 67% 1.9 mph W3.1 kmh W 2.9 mph4.7 kmh 30.14 in1020.7 mb 0.00 in0.0 mm 0.00 in/hr0.0 mm/hr 0.00 in0.0 mm
07:10 AM 45.0°F7.2°C 34.7°F1.5°C 67% 1.9 mph W3.1 kmh W 2.5 mph4.0 kmh 30.14 in1020.7 mb 0.00 in0.0 mm 0.00 in/hr0.0 mm/hr 0.00 in0.0 mm
07:05 AM 45.0°F7.2°C 35.1°F1.7°C 68% 1.9 mph WSW3.1 kmh WSW 2.9 mph4.7 kmh 30.15 in1021.0 mb 0.00 in0.0 mm 0.00 in/hr0.0 mm/hr 0.00 in0.0 mm
07:00 AM 45.0°F7.2°C 35.1°F1.7°C 68% 1.8 mph WSW2.9 kmh WSW 2.9 mph4.7 kmh 30.15 in1021.0 mb 0.00 in0.0 mm 0.00 in/hr0.0 mm/hr 0.00 in0.0 mm
06:55 AM 44.8°F7.1°C 34.9°F1.6°C 68% 1.9 mph W3.1 kmh W 3.4 mph5.5 kmh 30.15 in1021.0 mb 0.00 in0.0 mm 0.00 in/hr0.0 mm/hr 0.00 in0.0 mm
06:50 AM 44.6°F7.0°C 34.8°F1.6°C 68% 2.7 mph W4.3 kmh W 3.4 mph5.5 kmh 30.14 in1020.7 mb 0.00 in0.0 mm 0.00 in/hr0.0 mm/hr 0.00 in0.0 mm
06:45 AM 44.3°F6.8°C 34.7°F1.5°C 69% 2.2 mph WNW3.5 kmh WNW 3.1 mph5.0 kmh 30.14 in1020.7 mb 0.00 in0.0 mm 0.00 in/hr0.0 mm/hr 0.00 in0.0 mm
06:40 AM 43.9°F6.6°C 34.5°F1.4°C 69% 2.0 mph WNW3.2 kmh WNW 4.0 mph6.4 kmh 30.14 in1020.7 mb 0.00 in0.0 mm 0.00 in/hr0.0 mm/hr 0.00 in0.0 mm
06:35 AM 43.2°F6.2°C 34.2°F1.2°C 70% 2.9 mph NW4.7 kmh NW 4.0 mph6.4 kmh 30.14 in1020.7 mb 0.00 in0.0 mm 0.00 in/hr0.0 mm/hr 0.00 in0.0 mm
06:30 AM 42.8°F6.0°C 33.8°F1.0°C 70% 2.9 mph WNW4.7 kmh WNW 4.0 mph6.4 kmh 30.14 in1020.7 mb 0.00 in0.0 mm 0.00 in/hr0.0 mm/hr 0.00 in0.0 mm
06:25 AM 42.5°F5.8°C 33.5°F0.8°C 70% 2.2 mph WNW3.5 kmh WNW 3.4 mph5.5 kmh 30.14 in1020.7 mb 0.00 in0.0 mm 0.00 in/hr0.0 mm/hr 0.00 in0.0 mm
06:20 AM 42.3°F5.7°C 33.3°F0.7°C 70% 2.6 mph W4.2 kmh W 3.4 mph5.5 kmh 30.14 in1020.7 mb 0.00 in0.0 mm 0.00 in/hr0.0 mm/hr 0.00 in0.0 mm
06:15 AM 42.1°F5.6°C 33.1°F0.6°C 70% 1.3 mph NW2.1 kmh NW 2.5 mph4.0 kmh 30.14 in1020.7 mb 0.00 in0.0 mm 0.00 in/hr0.0 mm/hr 0.00 in0.0 mm
06:10 AM 42.1°F5.6°C 33.1°F0.6°C 70% 2.3 mph W3.7 kmh W 2.7 mph4.3 kmh 30.14 in1020.7 mb 0.00 in0.0 mm 0.00 in/hr0.0 mm/hr 0.00 in0.0 mm
06:05 AM 42.1°F5.6°C 32.8°F0.4°C 69% 0.9 mph NW1.4 kmh NW 2.7 mph4.3 kmh 30.13 in1020.3 mb 0.00 in0.0 mm 0.00 in/hr0.0 mm/hr 0.00 in0.0 mm
06:00 AM 42.1°F5.6°C 32.8°F0.4°C 69% 1.5 mph NW2.4 kmh NW 2.0 mph3.2 kmh 30.14 in1020.7 mb 0.00 in0.0 mm 0.00 in/hr0.0 mm/hr 0.00 in0.0 mm
05:55 AM 42.1°F5.6°C 32.8°F0.4°C 69% 0.6 mph W1.0 kmh W 1.1 mph1.8 kmh 30.13 in1020.3 mb 0.00 in0.0 mm 0.00 in/hr0.0 mm/hr 0.00 in0.0 mm
05:50 AM 42.3°F5.7°C 32.5°F0.3°C 68% 0.2 mph WSW0.3 kmh WSW 0.9 mph1.4 kmh 30.13 in1020.3 mb 0.00 in0.0 mm 0.00 in/hr0.0 mm/hr 0.00 in0.0 mm
05:45 AM 42.3°F5.7°C 32.5°F0.3°C 68% 0.6 mph WSW1.0 kmh WSW 1.6 mph2.6 kmh 30.13 in1020.3 mb 0.00 in0.0 mm 0.00 in/hr0.0 mm/hr 0.00 in0.0 mm
05:40 AM 42.3°F5.7°C 32.5°F0.3°C 68% 0.9 mph WSW1.4 kmh WSW 1.8 mph2.9 kmh 30.13 in1020.3 mb 0.00 in0.0 mm 0.00 in/hr0.0 mm/hr 0.00 in0.0 mm
05:35 AM 42.5°F5.8°C 32.7°F0.4°C 68% 1.0 mph WSW1.6 kmh WSW 2.0 mph3.2 kmh 30.13 in1020.3 mb 0.00 in0.0 mm 0.00 in/hr0.0 mm/hr 0.00 in0.0 mm
05:30 AM 42.5°F5.8°C 32.3°F0.2°C 67% 1.6 mph WSW2.6 kmh WSW 2.2 mph3.5 kmh 30.13 in1020.3 mb 0.00 in0.0 mm 0.00 in/hr0.0 mm/hr 0.00 in0.0 mm
05:25 AM 42.8°F6.0°C 32.7°F0.4°C 67% 1.8 mph WSW2.9 kmh WSW 2.2 mph3.5 kmh 30.13 in1020.3 mb 0.00 in0.0 mm 0.00 in/hr0.0 mm/hr 0.00 in0.0 mm
05:20 AM 42.8°F6.0°C 32.2°F0.1°C 66% 1.8 mph SW2.9 kmh SW 2.0 mph3.2 kmh 30.13 in1020.3 mb 0.00 in0.0 mm 0.00 in/hr0.0 mm/hr 0.00 in0.0 mm
05:15 AM 43.2°F6.2°C 32.2°F0.1°C 65% 1.7 mph SW2.7 kmh SW 2.0 mph3.2 kmh 30.13 in1020.3 mb 0.00 in0.0 mm 0.00 in/hr0.0 mm/hr 0.00 in0.0 mm
05:10 AM 43.6°F6.4°C 32.6°F0.3°C 65% 0.5 mph SSW0.8 kmh SSW 1.6 mph2.6 kmh 30.13 in1020.3 mb 0.00 in0.0 mm 0.00 in/hr0.0 mm/hr 0.00 in0.0 mm
05:05 AM 44.1°F6.7°C 32.7°F0.4°C 64% 0.8 mph NW1.3 kmh NW 0.9 mph1.4 kmh 30.13 in1020.3 mb 0.00 in0.0 mm 0.00 in/hr0.0 mm/hr 0.00 in0.0 mm
05:00 AM 44.6°F7.0°C 33.2°F0.7°C 64% 0.4 mph NW0.6 kmh NW 0.4 mph0.6 kmh 30.13 in1020.3 mb 0.00 in0.0 mm 0.00 in/hr0.0 mm/hr 0.00 in0.0 mm
04:55 AM 45.2°F7.3°C 33.3°F0.7°C 63% 0.4 mph NW0.6 kmh NW 0.9 mph1.4 kmh 30.13 in1020.3 mb 0.00 in0.0 mm 0.00 in/hr0.0 mm/hr 0.00 in0.0 mm
04:50 AM 45.7°F7.6°C 33.9°F1.1°C 63% 0.3 mph NW0.5 kmh NW 0.9 mph1.4 kmh 30.12 in1020.0 mb 0.00 in0.0 mm 0.00 in/hr0.0 mm/hr 0.00 in0.0 mm
04:45 AM 46.3°F7.9°C 34.3°F1.3°C 63% 0.5 mph NW0.8 kmh NW 1.1 mph1.8 kmh 30.13 in1020.3 mb 0.00 in0.0 mm 0.00 in/hr0.0 mm/hr 0.00 in0.0 mm
04:40 AM 46.6°F8.1°C 34.3°F1.3°C 62% 0.5 mph WNW0.8 kmh WNW 2.7 mph4.3 kmh 30.13 in1020.3 mb 0.00 in0.0 mm 0.00 in/hr0.0 mm/hr 0.00 in0.0 mm
04:35 AM 46.8°F8.2°C 34.0°F1.1°C 61% 0.2 mph NW0.3 kmh NW 2.7 mph4.3 kmh 30.13 in1020.3 mb 0.00 in0.0 mm 0.00 in/hr0.0 mm/hr 0.00 in0.0 mm
04:30 AM 47.0°F8.3°C 34.2°F1.2°C 61% 2.2 mph W3.5 kmh W 2.7 mph4.3 kmh 30.12 in1020.0 mb 0.00 in0.0 mm 0.00 in/hr0.0 mm/hr 0.00 in0.0 mm
04:25 AM 47.2°F8.4°C 34.4°F1.3°C 61% 0.9 mph W1.4 kmh W 2.7 mph4.3 kmh 30.13 in1020.3 mb 0.00 in0.0 mm 0.00 in/hr0.0 mm/hr 0.00 in0.0 mm
04:20 AM 47.3°F8.5°C 34.6°F1.4°C 61% 0.9 mph WNW1.4 kmh WNW 2.0 mph3.2 kmh 30.13 in1020.3 mb 0.00 in0.0 mm 0.00 in/hr0.0 mm/hr 0.00 in0.0 mm
04:15 AM 47.5°F8.6°C 34.7°F1.5°C 61% 0.4 mph W0.6 kmh W 2.0 mph3.2 kmh 30.13 in1020.3 mb 0.00 in0.0 mm 0.00 in/hr0.0 mm/hr 0.00 in0.0 mm
04:10 AM 47.7°F8.7°C 34.9°F1.6°C 61% 0.9 mph NW1.4 kmh NW 2.5 mph4.0 kmh 30.13 in1020.3 mb 0.00 in0.0 mm 0.00 in/hr0.0 mm/hr 0.00 in0.0 mm
04:05 AM 47.9°F8.8°C 35.1°F1.7°C 61% 1.3 mph W2.1 kmh W 2.5 mph4.0 kmh 30.13 in1020.3 mb 0.00 in0.0 mm 0.00 in/hr0.0 mm/hr 0.00 in0.0 mm
04:00 AM 48.1°F8.9°C 35.3°F1.8°C 61% 1.8 mph W2.9 kmh W 2.7 mph4.3 kmh 30.13 in1020.3 mb 0.00 in0.0 mm 0.00 in/hr0.0 mm/hr 0.00 in0.0 mm
03:55 AM 48.2°F9.0°C 35.5°F1.9°C 61% 2.0 mph WSW3.2 kmh WSW 2.9 mph4.7 kmh 30.13 in1020.3 mb 0.00 in0.0 mm 0.00 in/hr0.0 mm/hr 0.00 in0.0 mm
03:50 AM 48.6°F9.2°C 35.8°F2.1°C 61% 2.8 mph WSW4.5 kmh WSW 2.9 mph4.7 kmh 30.12 in1020.0 mb 0.00 in0.0 mm 0.00 in/hr0.0 mm/hr 0.00 in0.0 mm
03:45 AM 48.6°F9.2°C 35.8°F2.1°C 61% 1.8 mph NW2.9 kmh NW 3.8 mph6.1 kmh 30.12 in1020.0 mb 0.00 in0.0 mm 0.00 in/hr0.0 mm/hr 0.00 in0.0 mm
03:40 AM 48.6°F9.2°C 35.8°F2.1°C 61% 1.7 mph W2.7 kmh W 4.3 mph6.9 kmh 30.12 in1020.0 mb 0.00 in0.0 mm 0.00 in/hr0.0 mm/hr 0.00 in0.0 mm
03:35 AM 48.6°F9.2°C 35.8°F2.1°C 61% 2.6 mph W4.2 kmh W 4.9 mph7.9 kmh 30.12 in1020.0 mb 0.00 in0.0 mm 0.00 in/hr0.0 mm/hr 0.00 in0.0 mm
03:30 AM 48.6°F9.2°C 35.8°F2.1°C 61% 3.6 mph WSW5.8 kmh WSW 4.9 mph7.9 kmh 30.12 in1020.0 mb 0.00 in0.0 mm 0.00 in/hr0.0 mm/hr 0.00 in0.0 mm
03:25 AM 48.6°F9.2°C 35.8°F2.1°C 61% 2.7 mph W4.3 kmh W 4.7 mph7.6 kmh 30.12 in1020.0 mb 0.00 in0.0 mm 0.00 in/hr0.0 mm/hr 0.00 in0.0 mm
03:20 AM 48.6°F9.2°C 35.8°F2.1°C 61% 3.6 mph W5.8 kmh W 4.7 mph7.6 kmh 30.12 in1020.0 mb 0.00 in0.0 mm 0.00 in/hr0.0 mm/hr 0.00 in0.0 mm
03:15 AM 48.4°F9.1°C 35.6°F2.0°C 61% 3.4 mph W5.5 kmh W 4.7 mph7.6 kmh 30.12 in1020.0 mb 0.00 in0.0 mm 0.00 in/hr0.0 mm/hr 0.00 in0.0 mm
03:10 AM 48.1°F8.9°C 35.3°F1.8°C 61% 3.0 mph WSW4.8 kmh WSW 4.7 mph7.6 kmh 30.12 in1020.0 mb 0.00 in0.0 mm 0.00 in/hr0.0 mm/hr 0.00 in0.0 mm
03:05 AM 48.1°F8.9°C 35.3°F1.8°C 61% 4.0 mph WSW6.4 kmh WSW 4.7 mph7.6 kmh 30.12 in1020.0 mb 0.00 in0.0 mm 0.00 in/hr0.0 mm/hr 0.00 in0.0 mm
03:00 AM 47.7°F8.7°C 35.4°F1.9°C 62% 3.0 mph W4.8 kmh W 4.7 mph7.6 kmh 30.12 in1020.0 mb 0.00 in0.0 mm 0.00 in/hr0.0 mm/hr 0.00 in0.0 mm
02:55 AM 47.5°F8.6°C 35.2°F1.8°C 62% 3.0 mph WSW4.8 kmh WSW 4.3 mph6.9 kmh 30.12 in1020.0 mb 0.00 in0.0 mm 0.00 in/hr0.0 mm/hr 0.00 in0.0 mm
02:50 AM 47.2°F8.4°C 34.8°F1.6°C 62% 3.4 mph WSW5.5 kmh WSW 4.0 mph6.4 kmh 30.12 in1020.0 mb 0.00 in0.0 mm 0.00 in/hr0.0 mm/hr 0.00 in0.0 mm
02:45 AM 47.2°F8.4°C 34.8°F1.6°C 62% 3.2 mph WSW5.1 kmh WSW 3.4 mph5.5 kmh 30.12 in1020.0 mb 0.00 in0.0 mm 0.00 in/hr0.0 mm/hr 0.00 in0.0 mm
02:40 AM 47.0°F8.3°C 34.7°F1.5°C 62% 3.0 mph WSW4.8 kmh WSW 4.7 mph7.6 kmh 30.12 in1020.0 mb 0.00 in0.0 mm 0.00 in/hr0.0 mm/hr 0.00 in0.0 mm
02:35 AM 47.0°F8.3°C 34.7°F1.5°C 62% 3.4 mph W5.5 kmh W 4.7 mph7.6 kmh 30.12 in1020.0 mb 0.00 in0.0 mm 0.00 in/hr0.0 mm/hr 0.00 in0.0 mm
02:30 AM 47.0°F8.3°C 34.7°F1.5°C 62% 1.8 mph W2.9 kmh W 3.6 mph5.8 kmh 30.12 in1020.0 mb 0.00 in0.0 mm 0.00 in/hr0.0 mm/hr 0.00 in0.0 mm
02:25 AM 47.0°F8.3°C 34.7°F1.5°C 62% 2.7 mph WSW4.3 kmh WSW 3.6 mph5.8 kmh 30.12 in1020.0 mb 0.00 in0.0 mm 0.00 in/hr0.0 mm/hr 0.00 in0.0 mm
02:20 AM 47.0°F8.3°C 34.7°F1.5°C 62% 1.2 mph W1.9 kmh W 4.0 mph6.4 kmh 30.12 in1020.0 mb 0.00 in0.0 mm 0.00 in/hr0.0 mm/hr 0.00 in0.0 mm
02:15 AM 47.0°F8.3°C 34.7°F1.5°C 62% 2.6 mph W4.2 kmh W 5.1 mph8.2 kmh 30.12 in1020.0 mb 0.00 in0.0 mm 0.00 in/hr0.0 mm/hr 0.00 in0.0 mm
02:10 AM 47.0°F8.3°C 35.0°F1.7°C 63% 1.9 mph WSW3.1 kmh WSW 6.3 mph10.1 kmh 30.12 in1020.0 mb 0.00 in0.0 mm 0.00 in/hr0.0 mm/hr 0.00 in0.0 mm
02:05 AM 47.0°F8.3°C 35.0°F1.7°C 63% 2.3 mph NW3.7 kmh NW 6.3 mph10.1 kmh 30.12 in1020.0 mb 0.00 in0.0 mm 0.00 in/hr0.0 mm/hr 0.00 in0.0 mm
02:00 AM 47.0°F8.3°C 35.0°F1.7°C 63% 4.0 mph W6.4 kmh W 6.3 mph10.1 kmh 30.12 in1020.0 mb 0.00 in0.0 mm 0.00 in/hr0.0 mm/hr 0.00 in0.0 mm
01:55 AM 47.0°F8.3°C 34.7°F1.5°C 62% 2.4 mph WSW3.9 kmh WSW 4.3 mph6.9 kmh 30.12 in1020.0 mb 0.00 in0.0 mm 0.00 in/hr0.0 mm/hr 0.00 in0.0 mm
01:50 AM 47.2°F8.4°C 34.8°F1.6°C 62% 2.9 mph WSW4.7 kmh WSW 4.0 mph6.4 kmh 30.12 in1020.0 mb 0.00 in0.0 mm 0.00 in/hr0.0 mm/hr 0.00 in0.0 mm
01:45 AM 47.2°F8.4°C 34.8°F1.6°C 62% 2.1 mph WSW3.4 kmh WSW 6.7 mph10.8 kmh 30.12 in1020.0 mb 0.00 in0.0 mm 0.00 in/hr0.0 mm/hr 0.00 in0.0 mm
01:40 AM 47.2°F8.4°C 35.2°F1.8°C 63% 1.8 mph WNW2.9 kmh WNW 6.7 mph10.8 kmh 30.12 in1020.0 mb 0.00 in0.0 mm 0.00 in/hr0.0 mm/hr 0.00 in0.0 mm
01:35 AM 47.2°F8.4°C 35.2°F1.8°C 63% 3.1 mph WSW5.0 kmh WSW 4.7 mph7.6 kmh 30.12 in1020.0 mb 0.00 in0.0 mm 0.00 in/hr0.0 mm/hr 0.00 in0.0 mm
01:30 AM 47.0°F8.3°C 35.0°F1.7°C 63% 2.9 mph NW4.7 kmh NW 5.8 mph9.3 kmh 30.11 in1019.6 mb 0.00 in0.0 mm 0.00 in/hr0.0 mm/hr 0.00 in0.0 mm
01:25 AM 47.0°F8.3°C 35.0°F1.7°C 63% 3.9 mph W6.3 kmh W 5.8 mph9.3 kmh 30.12 in1020.0 mb 0.00 in0.0 mm 0.00 in/hr0.0 mm/hr 0.00 in0.0 mm
01:20 AM 47.2°F8.4°C 34.8°F1.6°C 62% 4.4 mph WSW7.1 kmh WSW 5.4 mph8.7 kmh 30.12 in1020.0 mb 0.00 in0.0 mm 0.00 in/hr0.0 mm/hr 0.00 in0.0 mm
01:15 AM 47.2°F8.4°C 34.8°F1.6°C 62% 2.9 mph W4.7 kmh W 4.7 mph7.6 kmh 30.12 in1020.0 mb 0.00 in0.0 mm 0.00 in/hr0.0 mm/hr 0.00 in0.0 mm
01:10 AM 47.2°F8.4°C 34.8°F1.6°C 62% 2.4 mph W3.9 kmh W 5.6 mph9.0 kmh 30.12 in1020.0 mb 0.00 in0.0 mm 0.00 in/hr0.0 mm/hr 0.00 in0.0 mm
01:05 AM 47.3°F8.5°C 35.0°F1.7°C 62% 3.5 mph W5.6 kmh W 5.6 mph9.0 kmh 30.12 in1020.0 mb 0.00 in0.0 mm 0.00 in/hr0.0 mm/hr 0.00 in0.0 mm
01:00 AM 47.3°F8.5°C 35.0°F1.7°C 62% 1.9 mph W3.1 kmh W 4.7 mph7.6 kmh 30.12 in1020.0 mb 0.00 in0.0 mm 0.00 in/hr0.0 mm/hr 0.00 in0.0 mm
12:55 AM 47.5°F8.6°C 35.2°F1.8°C 62% 2.7 mph WSW4.3 kmh WSW 5.1 mph8.2 kmh 30.12 in1020.0 mb 0.00 in0.0 mm 0.00 in/hr0.0 mm/hr 0.00 in0.0 mm
12:50 AM 47.5°F8.6°C 34.7°F1.5°C 61% 2.6 mph WNW4.2 kmh WNW 6.0 mph9.7 kmh 30.12 in1020.0 mb 0.00 in0.0 mm 0.00 in/hr0.0 mm/hr 0.00 in0.0 mm
12:45 AM 47.5°F8.6°C 34.7°F1.5°C 61% 3.4 mph W5.5 kmh W 6.0 mph9.7 kmh 30.12 in1020.0 mb 0.00 in0.0 mm 0.00 in/hr0.0 mm/hr 0.00 in0.0 mm
12:40 AM 47.5°F8.6°C 34.7°F1.5°C 61% 3.8 mph NW6.1 kmh NW 6.3 mph10.1 kmh 30.12 in1020.0 mb 0.00 in0.0 mm 0.00 in/hr0.0 mm/hr 0.00 in0.0 mm
12:35 AM 47.5°F8.6°C 35.2°F1.8°C 62% 5.3 mph WNW8.5 kmh WNW 6.3 mph10.1 kmh 30.12 in1020.0 mb 0.00 in0.0 mm 0.00 in/hr0.0 mm/hr 0.00 in0.0 mm
12:30 AM 47.3°F8.5°C 35.0°F1.7°C 62% 3.9 mph W6.3 kmh W 5.1 mph8.2 kmh 30.12 in1020.0 mb 0.00 in0.0 mm 0.00 in/hr0.0 mm/hr 0.00 in0.0 mm
12:25 AM 47.2°F8.4°C 34.8°F1.6°C 62% 3.1 mph W5.0 kmh W 4.5 mph7.2 kmh 30.12 in1020.0 mb 0.00 in0.0 mm 0.00 in/hr0.0 mm/hr 0.00 in0.0 mm
12:20 AM 47.2°F8.4°C 34.8°F1.6°C 62% 3.2 mph W5.1 kmh W 4.5 mph7.2 kmh 30.12 in1020.0 mb 0.00 in0.0 mm 0.00 in/hr0.0 mm/hr 0.00 in0.0 mm
12:15 AM 47.0°F8.3°C 35.0°F1.7°C 63% 3.3 mph W5.3 kmh W 4.3 mph6.9 kmh 30.12 in1020.0 mb 0.00 in0.0 mm 0.00 in/hr0.0 mm/hr 0.00 in0.0 mm
12:10 AM 47.2°F8.4°C 35.2°F1.8°C 63% 2.3 mph W3.7 kmh W 3.8 mph6.1 kmh 30.12 in1020.0 mb 0.00 in0.0 mm 0.00 in/hr0.0 mm/hr 0.00 in0.0 mm
12:05 AM 47.2°F8.4°C 34.8°F1.6°C 62% 2.3 mph NW3.7 kmh NW 3.8 mph6.1 kmh 30.12 in1020.0 mb 0.00 in0.0 mm 0.00 in/hr0.0 mm/hr 0.00 in0.0 mm
12:00 AM 47.3°F8.5°C 35.0°F1.7°C 62% 2.0 mph WSW3.2 kmh WSW 4.0 mph6.4 kmh 30.12 in1020.0 mb 0.00 in0.0 mm 0.00 in/hr0.0 mm/hr 0.00 in0.0 mm